createdAt,value
2018-09-13T00:00:58.421Z,8.00
2018-09-13T00:03:27.416Z,8.77
2018-09-13T00:05:56.287Z,11.43
2018-09-13T00:08:24.980Z,9.40
2018-09-13T00:10:53.717Z,7.73
2018-09-13T00:13:22.542Z,8.20
2018-09-13T00:15:51.536Z,7.80
2018-09-13T00:18:20.454Z,7.83
2018-09-13T00:20:49.246Z,7.90
2018-09-13T00:23:18.028Z,8.80
2018-09-13T00:25:46.826Z,7.40
2018-09-13T00:28:15.688Z,7.87
2018-09-13T00:30:44.500Z,10.43
2018-09-13T00:33:13.466Z,8.20
2018-09-13T00:35:42.306Z,7.67
2018-09-13T00:38:11.150Z,7.90
2018-09-13T00:40:40.088Z,7.97
2018-09-13T00:43:08.882Z,10.73
2018-09-13T00:45:37.719Z,10.23
2018-09-13T00:48:06.547Z,7.87
2018-09-13T00:50:35.343Z,8.07
2018-09-13T00:53:04.222Z,12.73
2018-09-13T00:55:32.968Z,7.87
2018-09-13T00:58:01.861Z,7.80
2018-09-13T01:00:30.744Z,7.00
2018-09-13T01:02:59.543Z,8.30
2018-09-13T01:05:28.501Z,8.60
2018-09-13T01:07:57.234Z,7.93
2018-09-13T01:10:26.282Z,8.47
2018-09-13T01:12:55.107Z,8.33
2018-09-13T01:15:24.249Z,6.90
2018-09-13T01:17:53.187Z,7.43
2018-09-13T01:20:21.982Z,8.10
2018-09-13T01:22:50.755Z,10.10
2018-09-13T01:25:19.612Z,10.53
2018-09-13T01:27:48.402Z,8.10
2018-09-13T01:30:17.345Z,8.20
2018-09-13T01:32:46.404Z,8.30
2018-09-13T01:35:15.191Z,12.80
2018-09-13T01:37:43.938Z,7.47
2018-09-13T01:40:12.692Z,7.57
2018-09-13T01:42:41.566Z,9.63
2018-09-13T01:45:10.515Z,9.20
2018-09-13T01:47:39.328Z,8.20
2018-09-13T01:50:08.358Z,11.77
2018-09-13T01:52:39.832Z,9.73
2018-09-13T01:55:08.986Z,10.10
2018-09-13T01:57:37.943Z,8.63
2018-09-13T02:00:07.158Z,10.10
2018-09-13T02:02:36.095Z,9.63
2018-09-13T02:05:05.167Z,8.93
2018-09-13T02:07:34.503Z,11.77
2018-09-13T02:10:03.564Z,9.27
2018-09-13T02:12:32.464Z,9.90
2018-09-13T02:15:01.458Z,14.33
2018-09-13T02:17:30.392Z,10.23
2018-09-13T02:19:59.495Z,8.23
2018-09-13T02:22:28.464Z,8.53
2018-09-13T02:24:57.305Z,8.60
2018-09-13T02:27:26.395Z,8.80
2018-09-13T02:29:55.242Z,10.10
2018-09-13T02:32:24.743Z,10.10
2018-09-13T02:34:53.580Z,9.80
2018-09-13T02:37:22.357Z,10.03
2018-09-13T02:39:51.143Z,10.23
2018-09-13T02:42:19.968Z,9.07
2018-09-13T02:44:48.952Z,13.57
2018-09-13T02:47:17.671Z,10.73
2018-09-13T02:49:46.460Z,10.73
2018-09-13T02:52:15.228Z,11.40
2018-09-13T02:54:43.969Z,8.40
2018-09-13T02:57:12.857Z,8.67
2018-09-13T02:59:41.895Z,11.13
2018-09-13T03:02:10.790Z,11.80
2018-09-13T03:04:39.513Z,10.30
2018-09-13T03:07:08.355Z,9.33
2018-09-13T03:09:37.121Z,11.03
2018-09-13T03:12:07.175Z,9.50
2018-09-13T03:14:36.067Z,9.30
2018-09-13T03:17:09.162Z,8.57
2018-09-13T03:19:37.913Z,9.43
2018-09-13T03:22:08.250Z,10.40
2018-09-13T03:24:37.414Z,9.63
2018-09-13T03:27:06.170Z,9.97
2018-09-13T03:29:34.959Z,8.23
2018-09-13T03:32:03.716Z,8.07
2018-09-13T03:34:32.686Z,9.10
2018-09-13T03:37:01.433Z,9.80
2018-09-13T03:39:30.172Z,9.07
2018-09-13T03:41:58.982Z,11.70
2018-09-13T03:44:27.792Z,10.13
2018-09-13T03:46:56.857Z,9.17
2018-09-13T03:49:25.554Z,8.73
2018-09-13T03:51:54.597Z,11.07
2018-09-13T03:54:23.412Z,9.30
2018-09-13T03:56:52.177Z,10.23
2018-09-13T03:59:21.106Z,14.90
2018-09-13T04:01:49.849Z,9.10
2018-09-13T04:04:18.891Z,9.90
2018-09-13T04:06:47.696Z,10.00
2018-09-13T04:09:16.515Z,9.10
2018-09-13T04:11:45.358Z,9.70
2018-09-13T04:14:14.190Z,10.00
2018-09-13T04:16:42.919Z,10.50
2018-09-13T04:19:11.735Z,9.37
2018-09-13T04:21:40.501Z,10.67
2018-09-13T04:24:09.353Z,10.23
2018-09-13T04:26:38.074Z,12.33
2018-09-13T04:29:06.820Z,13.43
2018-09-13T04:31:35.659Z,11.60
2018-09-13T04:34:04.494Z,11.00
2018-09-13T04:36:33.666Z,9.40
2018-09-13T04:39:02.495Z,10.53
2018-09-13T04:41:31.353Z,10.37
2018-09-13T04:44:00.379Z,10.40
2018-09-13T04:46:29.505Z,11.57
2018-09-13T04:48:58.373Z,13.63
2018-09-13T04:51:27.063Z,11.50
2018-09-13T04:53:55.770Z,12.67
2018-09-13T04:56:24.528Z,12.60
2018-09-13T04:58:53.514Z,12.17
2018-09-13T05:01:23.979Z,12.90
2018-09-13T05:03:53.864Z,16.20
2018-09-13T05:06:24.312Z,12.00
2018-09-13T05:08:53.448Z,15.17
2018-09-13T05:11:22.663Z,13.10
2018-09-13T05:13:51.621Z,12.67
2018-09-13T05:16:20.410Z,12.53
2018-09-13T05:18:49.174Z,11.80
2018-09-13T05:21:17.981Z,12.03
2018-09-13T05:23:46.776Z,10.90
2018-09-13T05:26:16.329Z,13.30
2018-09-13T05:28:45.136Z,14.13
2018-09-13T05:31:13.997Z,12.90
2018-09-13T05:33:42.751Z,11.57
2018-09-13T05:36:11.784Z,11.83
2018-09-13T05:38:40.772Z,14.43
2018-09-13T05:41:09.946Z,12.17
2018-09-13T05:43:38.955Z,11.67
2018-09-13T05:46:08.061Z,11.60
2018-09-13T05:48:37.238Z,11.60
2018-09-13T05:51:06.516Z,11.10
2018-09-13T05:53:35.742Z,11.47
2018-09-13T05:56:04.937Z,14.03
2018-09-13T05:58:33.989Z,11.53
2018-09-13T06:01:03.843Z,12.07
2018-09-13T06:03:32.984Z,11.03
2018-09-13T06:06:02.016Z,10.00
2018-09-13T06:08:31.007Z,11.00
2018-09-13T06:11:00.002Z,13.27
2018-09-13T06:13:30.876Z,10.43
2018-09-13T06:15:59.937Z,13.93
2018-09-13T06:18:28.829Z,10.77
2018-09-13T06:20:57.724Z,11.67
2018-09-13T06:23:27.245Z,13.43
2018-09-13T06:25:56.708Z,10.70
2018-09-13T06:28:25.629Z,15.13
2018-09-13T06:30:55.580Z,11.00
2018-09-13T06:33:24.367Z,11.30
2018-09-13T06:35:53.342Z,10.77
2018-09-13T06:38:22.739Z,12.10
2018-09-13T06:40:51.629Z,12.63
2018-09-13T06:43:20.553Z,11.37
2018-09-13T06:45:49.407Z,12.77
2018-09-13T06:48:18.247Z,11.53
2018-09-13T06:50:47.092Z,11.47
2018-09-13T06:53:15.887Z,11.83
2018-09-13T06:55:45.109Z,11.73
2018-09-13T06:58:13.991Z,12.10
2018-09-13T07:00:43.431Z,12.00
2018-09-13T07:03:12.255Z,14.40
2018-09-13T07:05:41.035Z,13.17
2018-09-13T07:08:09.971Z,12.30
2018-09-13T07:10:39.126Z,14.13
2018-09-13T07:13:08.760Z,18.50
2018-09-13T07:15:38.447Z,17.93
2018-09-13T07:18:10.370Z,25.70
2018-09-13T07:20:39.362Z,24.13
2018-09-13T07:23:08.241Z,20.60
2018-09-13T07:25:37.026Z,21.73
2018-09-13T07:28:05.885Z,21.40
2018-09-13T07:30:34.887Z,21.27
2018-09-13T07:33:03.695Z,21.73
2018-09-13T07:35:32.512Z,19.77
2018-09-13T07:38:01.517Z,18.33
2018-09-13T07:40:30.342Z,21.43
2018-09-13T07:42:59.429Z,16.00
2018-09-13T07:45:28.164Z,14.07
2018-09-13T07:47:57.587Z,12.03
2018-09-13T07:50:26.392Z,14.53
2018-09-13T07:52:55.569Z,12.00
2018-09-13T07:55:24.468Z,14.50
2018-09-13T07:57:53.342Z,13.73
2018-09-13T08:00:22.120Z,11.80
2018-09-13T08:02:51.223Z,12.37
2018-09-13T08:05:20.108Z,11.00
2018-09-13T08:07:48.900Z,12.73
2018-09-13T08:10:17.761Z,11.43
2018-09-13T08:12:46.640Z,9.83
2018-09-13T08:15:15.609Z,10.03
2018-09-13T08:17:44.506Z,10.30
2018-09-13T08:20:13.297Z,10.17
2018-09-13T08:22:42.158Z,9.87
2018-09-13T08:25:10.921Z,9.50
2018-09-13T08:27:39.854Z,10.90
2018-09-13T08:30:08.707Z,11.70
2018-09-13T08:32:37.446Z,8.17
2018-09-13T08:35:06.772Z,7.13
2018-09-13T08:37:35.980Z,6.40
2018-09-13T08:40:04.902Z,7.07
2018-09-13T08:42:33.719Z,7.20
2018-09-13T08:45:02.585Z,6.83
2018-09-13T08:47:31.520Z,6.60
2018-09-13T08:50:00.347Z,5.77
2018-09-13T08:52:29.166Z,9.03
2018-09-13T08:54:58.022Z,6.27
2018-09-13T08:57:29.276Z,5.67
2018-09-13T08:59:59.918Z,5.50
2018-09-13T09:02:30.166Z,6.90
2018-09-13T09:05:00.629Z,5.20
2018-09-13T09:07:29.390Z,7.77
2018-09-13T09:09:58.224Z,5.43
2018-09-13T09:12:27.097Z,6.37
2018-09-13T09:14:55.974Z,8.40
2018-09-13T09:17:25.109Z,8.43
2018-09-13T09:19:53.888Z,5.27
2018-09-13T09:22:23.060Z,5.20
2018-09-13T09:24:52.091Z,5.23
2018-09-13T09:27:21.131Z,5.23
2018-09-13T09:29:50.083Z,4.73
2018-09-13T09:32:18.768Z,4.23
2018-09-13T09:34:47.587Z,6.17
2018-09-13T09:37:16.446Z,6.07
2018-09-13T09:39:45.247Z,4.30
2018-09-13T09:42:14.022Z,4.30
2018-09-13T09:44:43.060Z,6.00
2018-09-13T09:47:11.845Z,5.03
2018-09-13T09:49:41.034Z,10.63
2018-09-13T09:52:09.893Z,4.97
2018-09-13T09:54:38.934Z,4.70
2018-09-13T09:57:07.784Z,4.37
2018-09-13T09:59:36.584Z,5.20
2018-09-13T10:02:10.781Z,9.50
2018-09-13T10:04:39.596Z,8.47
2018-09-13T10:07:08.485Z,4.47
2018-09-13T10:09:37.378Z,9.47
2018-09-13T10:12:06.272Z,5.40
2018-09-13T10:14:35.444Z,8.97
2018-09-13T10:17:09.460Z,5.20
2018-09-13T10:19:43.506Z,7.53
2018-09-13T10:22:17.620Z,6.00
2018-09-13T10:24:51.749Z,4.60
2018-09-13T10:27:25.658Z,4.70
2018-09-13T10:29:59.669Z,7.40
2018-09-13T10:32:33.818Z,5.97
2018-09-13T10:35:08.098Z,8.37
2018-09-13T10:37:42.325Z,5.70
2018-09-13T10:40:16.367Z,6.30
2018-09-13T10:42:50.330Z,7.60
2018-09-13T10:45:25.103Z,6.77
2018-09-13T10:47:59.090Z,5.30
2018-09-13T10:50:31.701Z,8.70
2018-09-13T10:53:04.645Z,6.40
2018-09-13T10:55:34.371Z,6.60
2018-09-13T10:58:03.127Z,7.23
2018-09-13T11:00:32.005Z,5.00
2018-09-13T11:03:01.099Z,9.70
2018-09-13T11:05:30.035Z,6.63
2018-09-13T11:07:58.850Z,9.57
2018-09-13T11:10:27.713Z,5.43
2018-09-13T11:13:03.511Z,9.33
2018-09-13T11:15:34.191Z,6.37
2018-09-13T11:18:04.678Z,5.57
2018-09-13T11:20:34.068Z,6.67
2018-09-13T11:23:03.058Z,8.17
2018-09-13T11:25:32.671Z,5.23
2018-09-13T11:28:01.587Z,6.20
2018-09-13T11:30:30.519Z,6.70
2018-09-13T11:32:59.197Z,4.60
2018-09-13T11:35:28.275Z,5.03
2018-09-13T11:37:57.114Z,7.70
2018-09-13T11:40:26.131Z,8.13
2018-09-13T11:42:54.881Z,8.33
2018-09-13T11:45:23.664Z,5.67
2018-09-13T11:47:52.586Z,5.57
2018-09-13T11:50:21.451Z,5.83
2018-09-13T11:52:50.267Z,6.23
2018-09-13T11:55:19.253Z,5.97
2018-09-13T11:57:48.082Z,5.90
2018-09-13T12:00:17.131Z,5.23
2018-09-13T12:02:46.247Z,6.20
2018-09-13T12:05:15.149Z,6.50
2018-09-13T12:07:43.995Z,6.20
2018-09-13T12:10:12.870Z,6.33
2018-09-13T12:12:41.867Z,7.10
2018-09-13T12:15:11.124Z,7.50
2018-09-13T12:17:41.880Z,5.67
2018-09-13T12:20:11.365Z,6.17
2018-09-13T12:22:40.258Z,6.50
2018-09-13T12:25:11.061Z,6.37
2018-09-13T12:27:41.706Z,7.23
2018-09-13T12:30:12.665Z,6.33
2018-09-13T12:32:43.095Z,6.80
2018-09-13T12:35:12.968Z,8.57
2018-09-13T12:37:41.965Z,7.00
2018-09-13T12:40:11.657Z,6.50
2018-09-13T12:42:41.498Z,9.47
2018-09-13T12:45:10.913Z,6.63
2018-09-13T12:47:40.063Z,9.53
2018-09-13T12:50:10.717Z,7.17
2018-09-13T12:52:41.542Z,7.83
2018-09-13T12:55:12.069Z,7.43
2018-09-13T12:57:42.583Z,6.67
2018-09-13T13:00:13.056Z,7.43
2018-09-13T13:02:41.968Z,6.13
2018-09-13T13:05:10.815Z,6.87
2018-09-13T13:07:39.642Z,6.90
2018-09-13T13:10:08.699Z,6.73
2018-09-13T13:12:37.568Z,8.73
2018-09-13T13:15:06.535Z,6.17
2018-09-13T13:17:35.612Z,6.30
2018-09-13T13:20:04.669Z,6.73
2018-09-13T13:22:33.755Z,6.13
2018-09-13T13:25:02.578Z,6.77
2018-09-13T13:27:31.503Z,8.33
2018-09-13T13:30:00.399Z,9.67
2018-09-13T13:32:29.236Z,6.33
2018-09-13T13:34:58.203Z,10.70
2018-09-13T13:37:27.284Z,6.90
2018-09-13T13:39:56.213Z,14.17
2018-09-13T13:42:25.332Z,7.00
2018-09-13T13:44:54.231Z,8.50
2018-09-13T13:47:23.486Z,7.57
2018-09-13T13:49:52.394Z,9.57
2018-09-13T13:52:21.211Z,5.80
2018-09-13T13:54:50.062Z,7.70
2018-09-13T13:57:18.872Z,5.60
2018-09-13T13:59:47.850Z,6.23
2018-09-13T14:02:16.671Z,8.33
2018-09-13T14:04:45.629Z,7.20
2018-09-13T14:07:14.528Z,8.00
2018-09-13T14:09:43.639Z,6.53
2018-09-13T14:12:12.723Z,6.33
2018-09-13T14:14:41.638Z,7.03
2018-09-13T14:17:10.465Z,6.63
2018-09-13T14:19:39.306Z,6.00
2018-09-13T14:22:08.425Z,17.10
2018-09-13T14:24:37.405Z,6.13
2018-09-13T14:27:08.711Z,11.30
2018-09-13T14:29:44.040Z,6.80
2018-09-13T14:32:13.164Z,3.43
2018-09-13T14:34:42.403Z,3.17
2018-09-13T14:37:11.222Z,3.70
2018-09-13T14:39:40.019Z,3.00
2018-09-13T14:42:08.861Z,3.77
2018-09-13T14:44:37.609Z,4.27
2018-09-13T14:47:06.578Z,4.50
2018-09-13T14:49:35.461Z,5.33
2018-09-13T14:52:04.282Z,3.63
2018-09-13T14:54:33.205Z,3.73
2018-09-13T14:57:01.999Z,4.00
2018-09-13T14:59:31.175Z,4.27
2018-09-13T15:01:59.971Z,5.50
2018-09-13T15:04:28.810Z,5.17
2018-09-13T15:06:57.748Z,7.20
2018-09-13T15:09:26.525Z,6.70
2018-09-13T15:11:55.501Z,6.70
2018-09-13T15:14:24.306Z,7.17
2018-09-13T15:16:53.102Z,6.20
2018-09-13T15:19:21.917Z,6.30
2018-09-13T15:21:50.698Z,9.00
2018-09-13T15:24:19.856Z,6.20
2018-09-13T15:26:48.860Z,5.43
2018-09-13T15:29:27.836Z,6.30
2018-09-13T15:31:57.182Z,5.90
2018-09-13T15:34:26.412Z,4.97
2018-09-13T15:36:55.752Z,5.23
2018-09-13T15:39:24.530Z,4.83
2018-09-13T15:41:53.463Z,4.93
2018-09-13T15:44:22.302Z,5.23
2018-09-13T15:46:51.303Z,5.70
2018-09-13T15:49:20.114Z,5.60
2018-09-13T15:51:48.945Z,6.00
2018-09-13T15:54:17.753Z,10.03
2018-09-13T15:56:46.654Z,11.43
2018-09-13T15:59:15.852Z,9.20
2018-09-13T16:01:44.835Z,7.70
2018-09-13T16:04:13.597Z,9.53
2018-09-13T16:06:42.418Z,10.80
2018-09-13T16:09:11.243Z,9.43
2018-09-13T16:11:40.261Z,7.93
2018-09-13T16:14:09.082Z,8.17
2018-09-13T16:16:37.933Z,8.23
2018-09-13T16:19:06.846Z,9.10
2018-09-13T16:21:35.813Z,8.63
2018-09-13T16:24:04.844Z,9.03
2018-09-13T16:26:33.643Z,9.80
2018-09-13T16:29:02.448Z,13.97
2018-09-13T16:31:31.289Z,11.13
2018-09-13T16:34:00.424Z,8.80
2018-09-13T16:36:30.951Z,9.30
2018-09-13T16:39:06.598Z,10.47
2018-09-13T16:41:41.890Z,9.93
2018-09-13T16:44:14.929Z,9.20
2018-09-13T16:46:48.984Z,10.00
2018-09-13T16:49:19.827Z,12.10
2018-09-13T16:51:48.608Z,10.93
2018-09-13T16:54:17.340Z,8.93
2018-09-13T16:56:46.140Z,9.70
2018-09-13T16:59:15.070Z,10.37
2018-09-13T17:01:45.228Z,11.37
2018-09-13T17:04:14.157Z,9.83
2018-09-13T17:06:43.293Z,12.30
2018-09-13T17:09:12.058Z,12.03
2018-09-13T17:11:41.766Z,12.73
2018-09-13T17:14:10.568Z,13.60
2018-09-13T17:16:39.608Z,14.40
2018-09-13T17:19:08.663Z,15.60
2018-09-13T17:21:37.519Z,11.43
2018-09-13T17:24:06.992Z,14.50
2018-09-13T17:26:36.836Z,12.40
2018-09-13T17:29:05.713Z,14.57
2018-09-13T17:31:34.566Z,15.37
2018-09-13T17:34:03.625Z,15.30
2018-09-13T17:36:32.635Z,16.27
2018-09-13T17:39:02.104Z,21.47
2018-09-13T17:41:31.035Z,21.50
2018-09-13T17:43:59.939Z,18.37
2018-09-13T17:46:31.039Z,17.77
2018-09-13T17:49:00.160Z,19.77
2018-09-13T17:51:29.099Z,16.80
2018-09-13T17:53:57.873Z,19.33
2018-09-13T17:56:26.740Z,14.30
2018-09-13T17:58:55.585Z,19.70
2018-09-13T18:01:24.413Z,17.20
2018-09-13T18:03:53.330Z,15.40
2018-09-13T18:06:22.855Z,17.70
2018-09-13T18:08:51.659Z,18.63
2018-09-13T18:11:20.499Z,18.13
2018-09-13T18:13:49.727Z,23.57
2018-09-13T18:16:18.721Z,24.33
2018-09-13T18:18:49.252Z,19.70
2018-09-13T18:21:18.168Z,21.20
2018-09-13T18:23:47.052Z,22.30
2018-09-13T18:26:15.985Z,15.23
2018-09-13T18:28:44.913Z,15.30
2018-09-13T18:31:13.958Z,18.07
2018-09-13T18:33:49.198Z,19.70
2018-09-13T18:36:26.568Z,19.47
2018-09-13T18:39:01.319Z,22.90
2018-09-13T18:41:30.459Z,25.60
2018-09-13T18:43:59.522Z,23.20
2018-09-13T18:46:28.566Z,20.53
2018-09-13T18:48:57.452Z,22.73
2018-09-13T18:51:26.469Z,18.93
2018-09-13T18:53:55.564Z,20.70
2018-09-13T18:56:24.563Z,21.13
2018-09-13T18:58:53.495Z,19.43
2018-09-13T19:01:22.549Z,21.80
2018-09-13T19:03:51.805Z,19.47
2018-09-13T19:06:21.071Z,17.97
2018-09-13T19:08:50.264Z,22.53
2018-09-13T19:11:19.199Z,20.90
2018-09-13T19:13:48.192Z,22.57
2018-09-13T19:16:17.215Z,19.80
2018-09-13T19:18:46.555Z,21.33
2018-09-13T19:21:15.716Z,21.60
2018-09-13T19:23:44.715Z,22.53
2018-09-13T19:26:13.563Z,19.73
2018-09-13T19:28:42.530Z,25.73
2018-09-13T19:31:12.110Z,19.37
2018-09-13T19:33:41.127Z,21.10
2018-09-13T19:36:10.121Z,20.80
2018-09-13T19:38:39.435Z,25.30
2018-09-13T19:41:08.559Z,19.83
2018-09-13T19:43:37.818Z,20.60
2018-09-13T19:46:06.805Z,22.20
2018-09-13T19:48:35.872Z,20.47
2018-09-13T19:51:05.100Z,18.53
2018-09-13T19:53:34.323Z,17.27
2018-09-13T19:56:03.443Z,20.27
2018-09-13T19:58:32.407Z,25.97
2018-09-13T20:01:01.197Z,22.20
2018-09-13T20:03:30.370Z,22.00
2018-09-13T20:05:59.831Z,21.70
2018-09-13T20:08:29.602Z,26.37
2018-09-13T20:10:59.090Z,24.20
2018-09-13T20:13:28.880Z,24.07
2018-09-13T20:15:58.601Z,29.77
2018-09-13T20:18:28.666Z,24.60
2018-09-13T20:20:58.631Z,28.40
2018-09-13T20:23:27.962Z,31.73
2018-09-13T20:25:58.036Z,26.67
2018-09-13T20:28:27.589Z,26.73
2018-09-13T20:30:57.458Z,30.80
2018-09-13T20:33:27.166Z,34.57
2018-09-13T20:35:56.573Z,32.27
2018-09-13T20:38:25.481Z,29.07
2018-09-13T20:40:54.391Z,33.67
2018-09-13T20:43:23.211Z,30.50
2018-09-13T20:45:52.102Z,33.70
2018-09-13T20:48:21.179Z,34.20
2018-09-13T20:50:50.263Z,37.43
2018-09-13T20:53:20.412Z,39.80
2018-09-13T20:55:50.385Z,31.20
2018-09-13T20:58:20.126Z,37.07
2018-09-13T21:00:50.439Z,36.50
2018-09-13T21:03:22.648Z,34.80
2018-09-13T21:05:51.568Z,35.60
2018-09-13T21:08:21.301Z,34.90
2018-09-13T21:10:55.469Z,33.03
2018-09-13T21:13:24.716Z,34.20
2018-09-13T21:15:55.920Z,32.90
2018-09-13T21:18:30.951Z,31.07
2018-09-13T21:20:59.963Z,29.80
2018-09-13T21:23:29.980Z,33.40
2018-09-13T21:26:00.367Z,35.20
2018-09-13T21:28:29.707Z,29.17
2018-09-13T21:30:59.886Z,26.13
2018-09-13T21:33:30.421Z,30.03
2018-09-13T21:35:59.475Z,26.03
2018-09-13T21:38:28.786Z,39.10
2018-09-13T21:40:58.127Z,29.43
2018-09-13T21:43:26.872Z,33.30
2018-09-13T21:45:55.697Z,28.20
2018-09-13T21:48:24.486Z,29.43
2018-09-13T21:50:54.013Z,29.13
2018-09-13T21:53:23.720Z,35.70
2018-09-13T21:55:52.859Z,27.37
2018-09-13T21:58:22.363Z,26.90
2018-09-13T22:00:52.373Z,28.77
2018-09-13T22:03:22.292Z,24.87
2018-09-13T22:05:51.776Z,28.13
2018-09-13T22:08:21.667Z,25.87
2018-09-13T22:10:51.240Z,26.83
2018-09-13T22:13:21.145Z,29.47
2018-09-13T22:15:50.149Z,30.27
2018-09-13T22:18:18.984Z,32.57
2018-09-13T22:20:47.783Z,36.23
2018-09-13T22:23:16.514Z,29.07
2018-09-13T22:25:45.414Z,39.13
2018-09-13T22:28:14.304Z,37.17
2018-09-13T22:30:43.169Z,43.40
2018-09-13T22:33:12.296Z,42.40
2018-09-13T22:35:41.164Z,46.30
2018-09-13T22:38:09.879Z,37.17
2018-09-13T22:40:38.784Z,47.10
2018-09-13T22:43:07.742Z,47.27
2018-09-13T22:45:36.533Z,43.67
2018-09-13T22:48:05.416Z,42.97
2018-09-13T22:50:34.314Z,31.73
2018-09-13T22:53:03.547Z,40.80
2018-09-13T22:55:32.499Z,39.70
2018-09-13T22:58:01.246Z,31.23
2018-09-13T23:00:29.982Z,30.93
2018-09-13T23:02:58.746Z,27.87
2018-09-13T23:05:27.813Z,33.97
2018-09-13T23:07:56.582Z,36.03
2018-09-13T23:10:25.373Z,34.83
2018-09-13T23:12:54.114Z,29.77
2018-09-13T23:15:22.894Z,37.67
2018-09-13T23:17:51.807Z,31.83
2018-09-13T23:20:20.582Z,26.90
2018-09-13T23:22:49.288Z,24.47
2018-09-13T23:25:18.072Z,30.23
2018-09-13T23:27:46.903Z,21.40
2018-09-13T23:30:15.774Z,24.20
2018-09-13T23:32:44.594Z,25.63
2018-09-13T23:35:13.354Z,22.80
2018-09-13T23:37:42.101Z,30.63
2018-09-13T23:40:10.950Z,42.27
2018-09-13T23:42:40.140Z,30.20
2018-09-13T23:45:09.140Z,19.17
2018-09-13T23:47:37.900Z,21.77
2018-09-13T23:50:06.738Z,18.50
2018-09-13T23:52:35.683Z,14.87
2018-09-13T23:55:04.999Z,13.30
2018-09-13T23:57:33.811Z,12.27
